KSOP/SOP METAR and TAF weather

Enter ICAO airport designator
Station Type Date Time Source
KSOP METAR 2020/02/19 13:56 UTC NOAA

KSOP 191356Z AUTO 02006KT 10SM BKN007 OVC011 10/09 A3027 RMK AO2 PRESRR SLP255 T01000089


Station Type Date Time Source
KSOP Decoded METAR 2020/02/19 13:56 UTC NOAA

Pinehurst/Southern Pines, Moore County Airport, NC, United States (KSOP) 35-14N 079-24W
Feb 19, 2020 - 08:56 AM EST / 2020.02.19 1356 UTC
Wind: from the NNE (020 degrees) at 7 MPH (6 KT):0
Visibility: 10 mile(s):0
Sky conditions: overcast
Temperature: 50.0 F (10.0 C)
Dew Point: 48.0 F (8.9 C)
Relative Humidity: 92%
Pressure (altimeter): 30.27 in. Hg (1025 hPa)
Pressure tendency: rising rapidly
ob: KSOP 191356Z AUTO 02006KT 10SM BKN007 OVC011 10/09 A3027 RMK AO2 PRESRR SLP255 T01000089
cycle: 14

Station Type Date Time Source
KSOP TAF UTC NOAA

Error!

Example: see airport list